Time;durP1;ratioP1;P1;durP2;ratioP2;P2;SDS_P1;SDS_P2;PMS_P1;PMS_P2;Temp;Humidity;BMP_temperature;BMP_pressure;BME280_temperature;BME280_humidity;BME280_pressure;Samples;Min_cycle;Max_cycle;Signal;HPM_P1;HPM_P2
2022/12/23 00:01:14;;;;;;;11.07;8.93;;;;;;;8.97;100.00;100345.88;6249012;22;20044;-77
2022/12/23 00:03:41;;;;;;;12.18;9.27;;;;;;;8.97;100.00;100348.53;6248788;22;20034;-76
2022/12/23 00:06:14;;;;;;;17.60;9.35;;;;;;;8.98;100.00;100344.69;6249864;22;20067;-76
2022/12/23 00:08:41;;;;;;;13.98;9.98;;;;;;;8.99;100.00;100345.44;6249236;22;20012;-76
2022/12/23 00:11:15;;;;;;;12.52;9.75;;;;;;;8.99;100.00;100348.81;6249729;22;20080;-78
2022/12/23 00:16:26;;;;;;;12.90;10.10;;;;;;;8.98;100.00;100355.31;6248734;22;20409;-76
2022/12/23 00:18:54;;;;;;;15.90;9.70;;;;;;;8.98;100.00;100354.56;6249162;22;20021;-77
2022/12/23 00:21:21;;;;;;;18.48;10.15;;;;;;;8.98;100.00;100365.94;6249553;22;20024;-76
2022/12/23 00:23:49;;;;;;;20.25;9.88;;;;;;;8.99;100.00;100370.06;6222187;22;20017;-76
2022/12/23 00:26:19;;;;;;;18.23;9.73;;;;;;;8.96;100.00;100368.28;6249760;22;20156;-76
2022/12/23 00:28:46;;;;;;;11.70;9.27;;;;;;;8.95;100.00;100377.41;6248203;22;20482;-76
2022/12/23 00:31:13;;;;;;;15.32;9.32;;;;;;;8.97;100.00;100379.63;6249445;22;20021;-76
2022/12/23 00:33:42;;;;;;;14.55;9.52;;;;;;;8.96;100.00;100378.16;6222191;22;20454;-77
2022/12/23 00:36:18;;;;;;;11.35;8.90;;;;;;;8.95;100.00;100377.41;6249541;22;20443;-76
2022/12/23 00:44:15;;;;;;;14.02;9.00;;;;;;;8.94;100.00;100389.22;6249144;22;20095;-76
2022/12/23 00:46:42;;;;;;;11.20;8.32;;;;;;;8.93;100.00;100390.38;6248996;22;20017;-75
2022/12/23 00:52:02;;;;;;;13.15;8.27;;;;;;;8.90;100.00;100380.63;6249293;22;20462;-76
2022/12/23 00:54:30;;;;;;;10.95;6.97;;;;;;;8.89;100.00;100394.34;6250228;22;20446;-75
2022/12/23 00:56:58;;;;;;;8.80;6.90;;;;;;;8.88;100.00;100387.56;6250377;22;20441;-76
2022/12/23 00:59:24;;;;;;;10.85;7.93;;;;;;;8.88;100.00;100390.22;6248364;22;20020;-76
2022/12/23 01:07:23;;;;;;;9.57;7.22;;;;;;;8.85;100.00;100405.09;6251056;22;20071;-76
2022/12/23 01:09:50;;;;;;;14.45;6.80;;;;;;;8.86;100.00;100403.91;6250385;22;20432;-76
2022/12/23 01:12:17;;;;;;;11.18;6.13;;;;;;;8.85;100.00;100397.13;6250138;22;20027;-76
2022/12/23 01:14:43;;;;;;;16.48;6.03;;;;;;;8.85;100.00;100401.69;6249888;22;20075;-76
2022/12/23 01:17:10;;;;;;;8.95;6.07;;;;;;;8.84;100.00;100397.56;6250346;22;20037;-77
2022/12/23 01:19:37;;;;;;;8.68;6.18;;;;;;;8.84;100.00;100405.53;6249894;22;20513;-76
2022/12/23 01:22:03;;;;;;;14.63;6.57;;;;;;;8.83;100.00;100406.69;6250604;22;20020;-77
2022/12/23 01:24:31;;;;;;;13.77;7.10;;;;;;;8.82;100.00;100415.84;6250184;22;20024;-77
2022/12/23 01:26:58;;;;;;;12.90;6.97;;;;;;;8.81;100.00;100412.44;6249658;22;20017;-77
2022/12/23 01:29:25;;;;;;;11.43;7.00;;;;;;;8.81;100.00;100419.66;6250255;22;20075;-77
2022/12/23 01:31:51;;;;;;;14.60;7.50;;;;;;;8.81;100.00;100424.97;6250141;22;20040;-77
2022/12/23 01:34:18;;;;;;;15.63;7.63;;;;;;;8.80;100.00;100424.22;6250628;22;20017;-77
2022/12/23 01:36:44;;;;;;;13.65;7.50;;;;;;;8.80;100.00;100426.88;6249935;22;20299;-77
2022/12/23 01:39:11;;;;;;;14.02;7.45;;;;;;;8.82;100.00;100434.41;6250453;22;20016;-77
2022/12/23 01:44:44;;;;;;;11.20;7.28;;;;;;;8.81;100.00;100431.03;6250492;22;20040;-77
2022/12/23 01:47:18;;;;;;;11.10;6.88;;;;;;;8.81;100.00;100436.34;6198290;22;20477;-76
2022/12/23 01:49:46;;;;;;;11.82;7.22;;;;;;;8.82;100.00;100445.03;6249689;22;20024;-76
2022/12/23 01:52:13;;;;;;;9.98;6.82;;;;;;;8.80;100.00;100440.16;6250633;22;20017;-76
2022/12/23 01:54:42;;;;;;;10.43;6.95;;;;;;;8.81;100.00;100446.94;6249736;22;20013;-76
2022/12/23 01:57:10;;;;;;;13.77;6.93;;;;;;;8.82;100.00;100445.03;6249558;22;20013;-76
2022/12/23 02:05:07;;;;;;;19.10;7.47;;;;;;;8.81;100.00;100470.09;6248384;22;20017;-76
2022/12/23 02:10:21;;;;;;;9.77;6.45;;;;;;;8.80;100.00;100469.34;6249521;22;20013;-76
2022/12/23 02:13:05;;;;;;;12.73;6.18;;;;;;;8.80;100.00;100482.63;6248818;22;20040;-75
2022/12/23 02:18:59;;;;;;;12.98;6.72;;;;;;;8.80;100.00;100485.28;6249795;22;20019;-76
2022/12/23 02:21:50;;;;;;;10.23;6.05;;;;;;;8.80;100.00;100484.53;6249996;22;20052;-76
2022/12/23 02:24:31;;;;;;;8.20;5.93;;;;;;;8.78;100.00;100487.66;6250255;22;20023;-76
2022/12/23 02:27:16;;;;;;;6.68;5.18;;;;;;;8.79;100.00;100494.44;6249428;22;20485;-76
2022/12/23 02:30:05;;;;;;;8.27;6.22;;;;;;;8.77;100.00;100494.13;6249576;22;20361;-76
2022/12/23 02:32:59;;;;;;;10.40;5.90;;;;;;;8.77;100.00;100502.09;6249856;22;20020;-76
2022/12/23 02:36:02;;;;;;;8.75;5.45;;;;;;;8.74;100.00;100505.63;6248338;22;20417;-76
2022/12/23 02:38:40;;;;;;;9.95;5.43;;;;;;;8.71;100.00;100505.72;6249713;22;20020;-76
2022/12/23 02:41:37;;;;;;;10.50;5.72;;;;;;;8.72;100.00;100507.97;6249411;22;20047;-75
2022/12/23 02:44:35;;;;;;;6.10;5.20;;;;;;;8.71;100.00;100511.78;6250280;22;20480;-76
2022/12/23 02:47:10;;;;;;;8.63;6.07;;;;;;;8.69;100.00;100511.47;6245571;22;20024;-76
2022/12/23 02:49:42;;;;;;;11.05;6.25;;;;;;;8.68;100.00;100517.94;6249509;22;20027;-75
2022/12/23 02:52:14;;;;;;;7.55;5.78;;;;;;;8.66;100.00;100525.59;6250617;22;20418;-76
2022/12/23 02:54:46;;;;;;;7.45;6.10;;;;;;;8.62;100.00;100531.03;6249009;22;20421;-76
2022/12/23 02:57:16;;;;;;;10.00;5.93;;;;;;;8.60;100.00;100532.63;6250434;22;20107;-79
2022/12/23 02:59:49;;;;;;;6.10;5.43;;;;;;;8.54;100.00;100532.44;6249676;22;20044;-79
2022/12/23 03:02:17;;;;;;;10.85;6.50;;;;;;;8.52;100.00;100537.41;6250546;22;20020;-76
2022/12/23 03:04:43;;;;;;;7.13;5.68;;;;;;;8.50;100.00;100539.75;6249603;22;20016;-76
2022/12/23 03:07:19;;;;;;;11.05;6.53;;;;;;;8.50;100.00;100541.66;6250370;22;20406;-76
2022/12/23 03:10:07;;;;;;;7.68;5.47;;;;;;;8.49;100.00;100546.22;6249073;22;20100;-77
2022/12/23 03:12:59;;;;;;;9.35;5.82;;;;;;;8.48;100.00;100541.34;6250055;22;20024;-77
2022/12/23 03:15:37;;;;;;;7.00;5.93;;;;;;;8.44;100.00;100543.38;6248532;22;20076;-77
2022/12/23 03:18:30;;;;;;;6.50;5.75;;;;;;;8.41;100.00;100537.03;6249987;22;20025;-77
2022/12/23 03:21:21;;;;;;;12.13;5.97;;;;;;;8.39;100.00;100538.66;6249935;22;20017;-77
2022/12/23 03:23:54;;;;;;;7.22;5.85;;;;;;;8.34;100.00;100530.06;6248957;22;20023;-77
2022/12/23 03:26:29;;;;;;;9.30;6.07;;;;;;;8.33;100.00;100530.47;6222940;22;20350;-77
2022/12/23 03:29:04;;;;;;;13.38;6.43;;;;;;;8.33;100.00;100533.88;6249665;22;20020;-76
2022/12/23 03:31:33;;;;;;;10.55;6.63;;;;;;;8.34;100.00;100527.41;6249943;22;20383;-77
2022/12/23 03:34:08;;;;;;;13.27;7.07;;;;;;;8.35;100.00;100534.19;6249864;22;20044;-76
2022/12/23 03:36:47;;;;;;;11.85;6.95;;;;;;;8.37;100.00;100530.38;6248390;22;20442;-77
2022/12/23 03:39:19;;;;;;;10.02;6.90;;;;;;;8.35;100.00;100528.88;6249527;22;20029;-77
2022/12/23 03:41:59;;;;;;;10.50;7.03;;;;;;;8.34;100.00;100532.72;6249560;22;20012;-77
2022/12/23 03:44:37;;;;;;;7.72;6.70;;;;;;;8.32;100.00;100535.06;6250011;22;20442;-77
2022/12/23 03:47:27;;;;;;;7.63;5.93;;;;;;;8.31;100.00;100538.09;6249985;22;20013;-77
2022/12/23 03:50:02;;;;;;;10.10;6.05;;;;;;;8.30;100.00;100552.53;6222451;22;20151;-77
2022/12/23 03:52:40;;;;;;;12.25;6.45;;;;;;;8.26;100.00;100539.38;6248972;22;20017;-76
2022/12/23 03:55:15;;;;;;;8.68;5.50;;;;;;;8.25;100.00;100535.25;6223234;22;20020;-76
2022/12/23 03:58:31;;;;;;;11.80;6.07;;;;;;;8.24;100.00;100539.06;6247582;22;20048;-76
2022/12/23 04:01:15;;;;;;;9.38;6.38;;;;;;;8.21;100.00;100536.53;6228819;22;20020;-76
2022/12/23 04:04:10;;;;;;;10.93;5.47;;;;;;;8.19;100.00;100560.06;6249074;22;20012;-76
2022/12/23 04:06:50;;;;;;;7.93;5.07;;;;;;;8.17;100.00;100555.19;6248589;22;20016;-76
2022/12/23 04:09:20;;;;;;;11.68;5.60;;;;;;;8.16;100.00;100564.31;6248251;22;20018;-77
2022/12/23 04:11:48;;;;;;;8.50;5.35;;;;;;;8.16;100.00;100552.97;6249049;22;20028;-77
2022/12/23 04:14:19;;;;;;;7.57;5.32;;;;;;;8.16;100.00;100564.31;6249870;22;20474;-77
2022/12/23 04:16:48;;;;;;;10.52;5.22;;;;;;;8.15;100.00;100570.78;6249200;22;20052;-77
2022/12/23 04:19:15;;;;;;;8.63;5.10;;;;;;;8.15;100.00;100581.38;6249827;22;20523;-77
2022/12/23 04:21:41;;;;;;;12.25;5.53;;;;;;;8.14;100.00;100581.81;6248291;22;20021;-77
2022/12/23 04:24:08;;;;;;;5.97;5.10;;;;;;;8.13;100.00;100590.94;6249835;22;20071;-77
2022/12/23 04:26:34;;;;;;;6.50;5.43;;;;;;;8.13;100.00;100585.63;6222353;22;20013;-77
2022/12/23 04:29:01;;;;;;;6.38;4.82;;;;;;;8.12;100.00;100592.84;6222300;22;20021;-76
2022/12/23 04:31:27;;;;;;;6.35;4.88;;;;;;;8.12;100.00;100592.84;6249165;22;20021;-77
2022/12/23 04:33:54;;;;;;;8.30;5.15;;;;;;;8.12;100.00;100589.47;6249259;22;20039;-77
2022/12/23 04:36:20;;;;;;;8.05;4.93;;;;;;;8.12;100.00;100586.81;6222079;22;20192;-77
2022/12/23 04:38:47;;;;;;;7.88;5.03;;;;;;;8.14;100.00;100587.88;6248967;22;20027;-77
2022/12/23 04:41:14;;;;;;;6.35;4.75;;;;;;;8.16;100.00;100584.78;6249282;22;20103;-77
2022/12/23 04:43:40;;;;;;;8.55;5.28;;;;;;;8.15;100.00;100586.69;6221531;22;20020;-76
2022/12/23 04:46:07;;;;;;;7.60;4.82;;;;;;;8.15;100.00;100583.31;6249608;22;20013;-76
2022/12/23 04:48:34;;;;;;;6.10;5.05;;;;;;;8.17;100.00;100584.38;6248907;22;20013;-77
2022/12/23 04:51:02;;;;;;;7.55;4.70;;;;;;;8.18;100.00;100585.84;6248767;22;20025;-77
2022/12/23 04:53:28;;;;;;;8.93;5.45;;;;;;;8.18;100.00;100575.25;6221680;22;20758;-76
2022/12/23 04:55:55;;;;;;;5.30;4.72;;;;;;;8.20;100.00;100572.91;6222399;22;20497;-77
2022/12/23 04:58:23;;;;;;;4.90;4.50;;;;;;;8.22;100.00;100573.22;6249342;22;20039;-77
2022/12/23 05:01:00;;;;;;;5.45;4.95;;;;;;;8.21;100.00;100569.09;6249022;22;20446;-77
2022/12/23 05:03:27;;;;;;;5.07;4.55;;;;;;;8.21;100.00;100571.00;6249127;22;20516;-77
2022/12/23 05:05:54;;;;;;;6.88;5.25;;;;;;;8.20;100.00;100578.22;6248345;22;20013;-77
2022/12/23 05:08:20;;;;;;;6.68;5.45;;;;;;;8.19;100.00;100570.69;6249456;22;20059;-76
2022/12/23 05:10:47;;;;;;;10.35;5.13;;;;;;;8.19;100.00;100571.41;6248582;22;20021;-76
2022/12/23 05:13:14;;;;;;;7.13;5.20;;;;;;;8.19;100.00;100571.41;6248972;22;20020;-76
2022/12/23 05:15:43;;;;;;;8.50;5.57;;;;;;;8.19;100.00;100571.41;6248439;22;20020;-76
2022/12/23 05:18:11;;;;;;;6.95;5.72;;;;;;;8.19;100.00;100579.38;6249097;22;20012;-76
2022/12/23 05:20:37;;;;;;;6.28;5.25;;;;;;;8.20;100.00;100575.56;6247738;22;20024;-77
2022/12/23 05:23:04;;;;;;;7.97;5.63;;;;;;;8.22;100.00;100580.44;6222454;22;20013;-76
2022/12/23 05:25:35;;;;;;;9.18;5.20;;;;;;;8.20;100.00;100596.78;6248886;22;20019;-76
2022/12/23 05:28:02;;;;;;;6.85;5.88;;;;;;;8.17;100.00;100594.22;6249063;22;20443;-76
2022/12/23 05:30:29;;;;;;;8.32;6.07;;;;;;;8.16;100.00;100604.09;6248747;22;20025;-77
2022/12/23 05:32:56;;;;;;;6.57;5.60;;;;;;;8.17;100.00;100599.53;6248824;22;20796;-77
2022/12/23 05:35:24;;;;;;;7.50;5.53;;;;;;;8.15;100.00;100602.59;6246902;22;20009;-76
2022/12/23 05:37:51;;;;;;;5.78;5.22;;;;;;;8.15;100.00;100599.94;6248549;22;20024;-76
2022/12/23 05:40:19;;;;;;;7.82;5.88;;;;;;;8.14;100.00;100614.38;6248915;22;20077;-76
2022/12/23 05:42:52;;;;;;;5.80;5.25;;;;;;;8.13;100.00;100615.53;6248298;22;20472;-76
2022/12/23 05:45:19;;;;;;;5.72;5.25;;;;;;;8.12;100.00;100622.00;6223517;22;20405;-76
2022/12/23 05:47:46;;;;;;;6.70;5.15;;;;;;;8.11;100.00;100628.47;6249267;22;20024;-76
2022/12/23 05:50:13;;;;;;;7.60;5.15;;;;;;;8.12;100.00;100622.00;6223762;22;20021;-76
2022/12/23 05:52:39;;;;;;;5.45;4.82;;;;;;;8.12;100.00;100621.28;6249722;22;20417;-76
2022/12/23 05:55:07;;;;;;;6.13;5.53;;;;;;;8.10;100.00;100619.03;6250658;22;20474;-76
2022/12/23 05:57:33;;;;;;;7.20;5.18;;;;;;;8.10;100.00;100627.00;6249956;22;20017;-77
2022/12/23 06:00:00;;;;;;;8.13;5.35;;;;;;;8.10;100.00;100619.03;6222989;22;20024;-76
2022/12/23 06:02:26;;;;;;;5.15;4.75;;;;;;;8.11;100.00;100617.88;6249467;22;20023;-76
2022/12/23 06:04:53;;;;;;;5.35;4.85;;;;;;;8.12;100.00;100622.00;6249967;22;20013;-76
2022/12/23 06:07:19;;;;;;;7.28;5.20;;;;;;;8.12;100.00;100608.75;6250280;22;20019;-76
2022/12/23 06:09:46;;;;;;;5.70;5.10;;;;;;;8.12;100.00;100616.72;6249636;22;20450;-76
2022/12/23 06:12:12;;;;;;;5.35;4.85;;;;;;;8.11;100.00;100609.19;6250425;22;20443;-76
2022/12/23 06:14:39;;;;;;;6.00;5.47;;;;;;;8.12;100.00;100611.41;6249479;22;20017;-75
2022/12/23 06:17:05;;;;;;;5.47;4.97;;;;;;;8.14;100.00;100608.34;6249737;22;20017;-76
2022/12/23 06:19:32;;;;;;;6.53;5.30;;;;;;;8.15;100.00;100610.56;6250151;22;20025;-76
2022/12/23 06:21:58;;;;;;;6.85;5.05;;;;;;;8.14;100.00;100592.41;6223272;22;20020;-76
2022/12/23 06:24:26;;;;;;;5.45;4.95;;;;;;;8.14;100.00;100593.16;6249758;22;20504;-76
2022/12/23 06:26:52;;;;;;;5.82;5.32;;;;;;;8.12;100.00;100586.81;6250074;22;20012;-77
2022/12/23 06:29:23;;;;;;;5.10;4.45;;;;;;;8.12;100.00;100590.19;6250522;22;20051;-77
2022/12/23 06:31:50;;;;;;;5.80;5.30;;;;;;;8.11;100.00;100588.72;6247941;22;20425;-77
2022/12/23 06:34:17;;;;;;;6.13;5.45;;;;;;;8.13;100.00;100588.28;6250395;22;20031;-77
2022/12/23 06:36:43;;;;;;;6.05;5.20;;;;;;;8.13;100.00;100586.38;6249530;22;20012;-77
2022/12/23 06:39:10;;;;;;;5.88;5.28;;;;;;;8.14;100.00;100603.78;6223074;22;20056;-77
2022/12/23 06:41:36;;;;;;;7.47;5.75;;;;;;;8.14;100.00;100606.44;6222320;22;20024;-77
2022/12/23 06:44:03;;;;;;;6.88;5.38;;;;;;;8.15;100.00;100601.88;6250236;22;20013;-76
2022/12/23 06:46:30;;;;;;;5.72;5.25;;;;;;;8.17;100.00;100610.13;6222062;22;20020;-76
2022/12/23 06:48:56;;;;;;;6.22;5.63;;;;;;;8.17;100.00;100613.53;6249851;22;20020;-76
2022/12/23 06:51:23;;;;;;;6.22;5.55;;;;;;;8.19;100.00;100610.47;6249812;22;20403;-76
2022/12/23 06:53:50;;;;;;;5.82;5.30;;;;;;;8.20;100.00;100618.00;6249666;22;20016;-77
2022/12/23 06:56:17;;;;;;;6.07;5.55;;;;;;;8.21;100.00;100627.44;6250082;22;20017;-76
2022/12/23 06:58:43;;;;;;;5.88;5.28;;;;;;;8.22;100.00;100623.59;6249252;22;20024;-76
2022/12/23 07:01:10;;;;;;;7.07;6.10;;;;;;;8.23;100.00;100627.00;6249359;22;20058;-76
2022/12/23 07:03:37;;;;;;;7.25;6.30;;;;;;;8.22;100.00;100630.81;6249358;22;20023;-77
2022/12/23 07:06:04;;;;;;;7.63;6.78;;;;;;;8.22;100.00;100626.25;6223338;22;20466;-76
2022/12/23 07:08:30;;;;;;;8.27;6.72;;;;;;;8.22;100.00;100631.56;6249697;22;20110;-76
2022/12/23 07:11:02;;;;;;;8.20;7.30;;;;;;;8.24;100.00;100639.09;6222739;22;20447;-77
2022/12/23 07:13:29;;;;;;;;;;;;;;;8.23;100.00;100635.69;6223433;22;20506;-76
2022/12/23 07:15:55;;;;;;;7.03;6.13;;;;;;;8.21;100.00;100639.94;6248875;22;20290;-77
2022/12/23 07:18:22;;;;;;;7.95;7.15;;;;;;;8.20;100.00;100649.81;6249636;22;20087;-77
2022/12/23 07:20:50;;;;;;;8.82;7.40;;;;;;;8.20;100.00;100647.16;6247673;22;20021;-78
2022/12/23 07:23:17;;;;;;;8.20;7.18;;;;;;;8.21;100.00;100651.28;6249775;22;20024;-78
2022/12/23 07:25:43;;;;;;;7.43;6.57;;;;;;;8.21;100.00;100655.84;6223004;22;20648;-78
2022/12/23 07:28:10;;;;;;;7.25;6.53;;;;;;;8.20;100.00;100660.41;6250937;22;20021;-78
2022/12/23 07:30:36;;;;;;;8.15;7.30;;;;;;;8.20;100.00;100662.31;6222708;22;20023;-78
2022/12/23 07:33:03;;;;;;;8.25;7.40;;;;;;;8.19;100.00;100661.56;6223121;22;20409;-78
2022/12/23 07:35:29;;;;;;;12.45;8.00;;;;;;;8.20;100.00;100657.03;6249003;22;20012;-78
2022/12/23 07:37:56;;;;;;;8.25;7.03;;;;;;;8.20;100.00;100657.75;6249674;22;20068;-78
2022/12/23 07:40:24;;;;;;;10.88;7.43;;;;;;;8.20;100.00;100652.47;6249019;22;20453;-79
2022/12/23 07:42:56;;;;;;;9.65;7.05;;;;;;;8.19;100.00;100643.03;6249797;22;20474;-77
2022/12/23 07:45:24;;;;;;;10.63;7.18;;;;;;;8.17;100.00;100634.75;6250225;22;20013;-80
2022/12/23 07:47:55;;;;;;;9.20;7.80;;;;;;;8.20;100.00;100636.53;6250186;22;20017;-79
2022/12/23 07:50:22;;;;;;;15.63;7.70;;;;;;;8.22;100.00;100630.81;6250745;22;20024;-78
2022/12/23 07:52:48;;;;;;;9.77;7.70;;;;;;;8.22;100.00;100641.44;6249128;22;20714;-78
2022/12/23 07:55:15;;;;;;;9.95;7.65;;;;;;;8.21;100.00;100632.72;6250480;22;20016;-80
2022/12/23 07:57:41;;;;;;;15.82;8.05;;;;;;;8.20;100.00;100627.84;6249996;22;20024;-77
2022/12/23 08:00:12;;;;;;;12.13;8.48;;;;;;;8.19;100.00;100624.47;6223138;22;20392;-78
2022/12/23 08:02:39;;;;;;;13.77;8.05;;;;;;;8.19;100.00;100635.06;6247911;22;20036;-77
2022/12/23 08:05:07;;;;;;;10.85;8.35;;;;;;;8.18;100.00;100630.19;6250394;22;20044;-77
2022/12/23 08:07:34;;;;;;;11.00;7.90;;;;;;;8.20;100.00;100628.59;6223301;22;20027;-77
2022/12/23 08:10:01;;;;;;;11.05;7.80;;;;;;;8.21;100.00;100627.44;6250275;22;20013;-77
2022/12/23 08:12:28;;;;;;;12.55;9.25;;;;;;;8.21;100.00;100624.03;6250244;22;20446;-77
2022/12/23 08:14:54;;;;;;;15.30;9.55;;;;;;;8.20;100.00;100615.34;6249732;22;20019;-78
2022/12/23 08:17:25;;;;;;;13.88;9.73;;;;;;;8.22;100.00;100620.22;6250597;22;20028;-76
2022/12/23 08:19:51;;;;;;;14.95;9.25;;;;;;;8.24;100.00;100620.53;6250402;22;20386;-76
2022/12/23 08:22:18;;;;;;;14.57;9.90;;;;;;;8.22;100.00;100623.59;6250441;22;20023;-75
2022/12/23 08:24:45;;;;;;;15.77;10.13;;;;;;;8.21;100.00;100610.78;6250050;22;20017;-76
2022/12/23 08:27:11;;;;;;;16.15;10.27;;;;;;;8.20;100.00;100623.28;6250304;22;20477;-75
2022/12/23 08:29:38;;;;;;;14.43;9.75;;;;;;;8.21;100.00;100619.47;6221848;22;20020;-75
2022/12/23 08:32:06;;;;;;;16.77;10.43;;;;;;;8.21;100.00;100614.16;6250441;22;20020;-75
2022/12/23 08:34:33;;;;;;;19.42;10.45;;;;;;;8.22;100.00;100610.34;6250050;22;20119;-74
2022/12/23 08:37:00;;;;;;;15.35;10.27;;;;;;;8.23;100.00;100601.22;6222890;22;20417;-75
2022/12/23 08:39:27;;;;;;;17.77;10.93;;;;;;;8.24;100.00;100601.97;6249429;22;20434;-75
2022/12/23 08:41:53;;;;;;;18.48;11.13;;;;;;;8.24;100.00;100594.00;6249794;22;20020;-76
2022/12/23 08:44:20;;;;;;;20.55;11.05;;;;;;;8.24;100.00;100596.66;6222960;22;20021;-76
2022/12/23 08:46:47;;;;;;;20.85;11.40;;;;;;;8.25;100.00;100606.84;6249761;22;20407;-77
2022/12/23 08:49:14;;;;;;;22.02;11.65;;;;;;;8.25;100.00;100604.19;6249964;22;20024;-76
2022/12/23 08:51:41;;;;;;;20.83;12.07;;;;;;;8.25;100.00;100592.84;6249830;22;20139;-77
2022/12/23 08:54:09;;;;;;;20.85;12.18;;;;;;;8.26;100.00;100589.03;6250007;22;20013;-75
2022/12/23 08:56:39;;;;;;;23.65;11.95;;;;;;;8.27;100.00;100583.28;6248932;22;20052;-75
2022/12/23 08:59:06;;;;;;;21.17;11.77;;;;;;;8.26;100.00;100583.72;6249876;22;20017;-76
2022/12/23 09:01:33;;;;;;;22.48;11.95;;;;;;;8.27;100.00;100578.00;6249742;22;20013;-77
2022/12/23 09:04:05;;;;;;;22.10;12.07;;;;;;;8.29;100.00;100574.91;6222603;22;20484;-78
2022/12/23 09:06:35;;;;;;;22.23;12.10;;;;;;;8.28;100.00;100568.88;6248092;22;20052;-76
2022/12/23 09:09:02;;;;;;;18.52;11.75;;;;;;;8.29;100.00;100572.25;6249800;22;20023;-75
2022/12/23 09:11:29;;;;;;;19.65;11.73;;;;;;;8.30;100.00;100573.75;6248757;22;20020;-76
2022/12/23 09:13:58;;;;;;;24.23;12.43;;;;;;;8.29;100.00;100554.44;6249999;22;20016;-78
2022/12/23 09:16:25;;;;;;;29.85;13.52;;;;;;;8.29;100.00;100559.75;6250731;22;20391;-76
2022/12/23 09:18:52;;;;;;;24.20;13.02;;;;;;;8.30;100.00;100563.13;6250937;22;20043;-76
2022/12/23 09:21:21;;;;;;;23.77;13.50;;;;;;;8.30;100.00;100566.53;6250740;22;20027;-76
2022/12/23 09:23:48;;;;;;;23.27;13.02;;;;;;;8.32;100.00;100564.22;6250985;22;20021;-76
2022/12/23 09:26:23;;;;;;;24.30;13.48;;;;;;;8.33;100.00;100560.41;6250621;22;20020;-77
2022/12/23 09:28:50;;;;;;;23.83;13.07;;;;;;;8.33;100.00;100551.69;6249024;22;20075;-77
2022/12/23 09:31:17;;;;;;;26.17;12.98;;;;;;;8.33;100.00;100549.78;6198503;22;20020;-77
2022/12/23 09:33:49;;;;;;;26.35;12.98;;;;;;;8.34;100.00;100555.84;6250682;22;20016;-76
2022/12/23 09:36:16;;;;;;;26.98;12.68;;;;;;;8.33;100.00;100555.09;6224373;22;20017;-76
2022/12/23 09:38:43;;;;;;;28.85;13.23;;;;;;;8.37;100.00;100556.91;6250719;22;20098;-76
2022/12/23 09:41:25;;;;;;;27.95;13.10;;;;;;;8.38;100.00;100563.69;6249862;22;20082;-76
2022/12/23 09:43:56;;;;;;;27.73;12.77;;;;;;;8.38;100.00;100559.13;6250939;22;20016;-76
2022/12/23 09:46:26;;;;;;;29.50;12.43;;;;;;;8.38;100.00;100559.13;6250699;22;20092;-76
2022/12/23 09:49:01;;;;;;;38.55;13.52;;;;;;;8.41;100.00;100552.94;6250595;22;20027;-75
2022/12/23 09:51:29;;;;;;;34.10;14.50;;;;;;;8.42;100.00;100548.38;6250496;22;20036;-74
2022/12/23 09:54:19;;;;;;;31.73;12.68;;;;;;;8.44;100.00;100536.16;6250550;22;20025;-76
2022/12/23 09:57:21;;;;;;;35.05;13.90;;;;;;;8.44;100.00;100533.50;6250233;22;20446;-75
2022/12/23 10:00:10;;;;;;;30.05;13.18;;;;;;;8.44;100.00;100514.94;6250520;22;20023;-73
2022/12/23 10:02:58;;;;;;;32.80;12.35;;;;;;;8.47;100.00;100508.78;6250115;22;20013;-73
2022/12/23 10:05:50;;;;;;;26.60;12.52;;;;;;;8.49;100.00;100501.13;6250466;22;20028;-73
2022/12/23 10:08:38;;;;;;;25.15;12.35;;;;;;;8.52;100.00;100499.53;6251093;22;20087;-74
2022/12/23 10:11:13;;;;;;;32.38;12.32;;;;;;;8.53;100.00;100491.16;6250411;22;20019;-75
2022/12/23 10:13:44;;;;;;;23.27;11.57;;;;;;;8.54;100.00;100489.97;6223587;22;20021;-77
2022/12/23 10:16:17;;;;;;;19.07;11.20;;;;;;;8.52;100.00;100479.06;6224268;22;20014;-75
2022/12/23 10:18:54;;;;;;;20.92;10.73;;;;;;;8.52;100.00;100481.69;6250359;22;20703;-77
2022/12/23 10:21:34;;;;;;;19.27;10.50;;;;;;;8.54;100.00;100482.00;6250829;22;20055;-75
2022/12/23 10:24:18;;;;;;;18.00;10.88;;;;;;;8.58;100.00;100476.59;6223330;22;20017;-75
2022/12/23 10:26:53;;;;;;;20.67;10.02;;;;;;;8.58;100.00;100471.28;6249911;22;20016;-76
2022/12/23 10:29:25;;;;;;;22.70;11.27;;;;;;;8.60;100.00;100471.59;6223832;22;20027;-76
2022/12/23 10:32:05;;;;;;;;;;;;;;;8.60;100.00;100468.94;6251137;22;20021;-77
2022/12/23 10:35:14;;;;;;;19.23;10.40;;;;;;;8.62;100.00;100469.25;6223360;22;19920;-77
2022/12/23 10:37:50;;;;;;;16.63;10.23;;;;;;;8.60;100.00;100468.94;6203360;22;20016;-77
2022/12/23 10:40:23;;;;;;;19.45;10.18;;;;;;;8.61;100.00;100468.50;6223920;22;20024;-77
2022/12/23 10:43:38;;;;;;;25.65;10.23;;;;;;;8.62;100.00;100464.69;6250792;22;20047;-76
2022/12/23 10:46:32;;;;;;;16.60;9.63;;;;;;;8.64;100.00;100459.69;6205747;22;20382;-76
2022/12/23 10:49:14;;;;;;;17.85;9.00;;;;;;;8.65;100.00;100457.78;6249218;22;20019;-75
2022/12/23 10:51:56;;;;;;;18.17;9.25;;;;;;;8.65;100.00;100447.91;6250196;22;20017;-75
2022/12/23 10:54:25;;;;;;;;;;;;;;;8.67;100.00;100442.91;6250801;22;20017;-76
2022/12/23 10:56:53;;;;;;;15.38;9.25;;;;;;;8.68;100.00;100444.38;6250500;22;20326;-77
2022/12/23 10:59:25;;;;;;;16.70;9.82;;;;;;;8.69;100.00;100437.91;6249337;22;20017;-75
2022/12/23 11:02:14;;;;;;;17.77;10.23;;;;;;;8.70;100.00;100438.66;6250566;22;20075;-76
2022/12/23 11:04:46;;;;;;;16.27;10.20;;;;;;;8.71;100.00;100426.84;6250000;22;20013;-76
2022/12/23 11:07:16;;;;;;;18.30;10.23;;;;;;;8.74;100.00;100426.00;6250303;22;20039;-76
2022/12/23 11:10:11;;;;;;;18.85;10.25;;;;;;;8.73;100.00;100421.84;6250847;22;20423;-77
2022/12/23 11:12:44;;;;;;;28.35;10.52;;;;;;;8.74;100.00;100419.94;6250195;22;20075;-78
2022/12/23 11:15:31;;;;;;;25.42;10.43;;;;;;;8.77;100.00;100417.16;6250851;22;20413;-78
2022/12/23 11:18:05;;;;;;;20.42;10.45;;;;;;;8.77;100.00;100413.78;6251707;22;20012;-77
2022/12/23 11:20:34;;;;;;;21.45;11.65;;;;;;;8.77;100.00;100422.47;6250150;22;20083;-78
2022/12/23 11:23:03;;;;;;;21.33;11.63;;;;;;;8.78;100.00;100423.22;6222670;22;20088;-77
2022/12/23 11:25:37;;;;;;;26.05;12.35;;;;;;;8.78;100.00;100423.97;6222966;22;20033;-78
2022/12/23 11:28:09;;;;;;;24.30;12.13;;;;;;;8.80;100.00;100423.50;6251566;22;20021;-79
2022/12/23 11:30:56;;;;;;;23.73;12.68;;;;;;;8.78;100.00;100416.00;6223144;22;20013;-77
2022/12/23 11:33:26;;;;;;;26.67;13.00;;;;;;;8.77;100.00;100409.22;6250384;22;20328;-77
2022/12/23 11:36:07;;;;;;;27.30;14.65;;;;;;;8.79;100.00;100403.47;6250130;22;20067;-78
2022/12/23 11:38:36;;;;;;;31.77;15.80;;;;;;;8.78;100.00;100392.09;6250188;22;20399;-78
2022/12/23 11:41:03;;;;;;;36.42;17.27;;;;;;;8.78;100.00;100384.16;6222800;22;20021;-80
2022/12/23 11:43:31;;;;;;;38.53;17.80;;;;;;;8.78;100.00;100365.56;6248678;22;20066;-77
2022/12/23 11:46:13;;;;;;;41.63;19.23;;;;;;;8.81;100.00;100358.63;6250574;22;20020;-79
2022/12/23 11:48:40;;;;;;;40.85;18.77;;;;;;;8.81;100.00;100337.38;6250111;22;20494;-77
2022/12/23 11:51:07;;;;;;;39.80;19.27;;;;;;;8.81;100.00;100340.78;6222807;22;20473;-74
2022/12/23 11:53:35;;;;;;;40.90;20.27;;;;;;;8.82;100.00;100344.19;6249945;22;20091;-76
2022/12/23 11:56:07;;;;;;;38.13;18.65;;;;;;;8.82;100.00;100334.28;6250143;22;20017;-76
2022/12/23 11:59:01;;;;;;;42.35;19.63;;;;;;;8.83;100.00;100316.47;6249950;22;20019;-77
2022/12/23 12:01:28;;;;;;;40.55;19.15;;;;;;;8.82;100.00;100314.97;6250137;22;20490;-77
2022/12/23 12:03:59;;;;;;;41.47;20.27;;;;;;;8.82;100.00;100307.75;6250117;22;20027;-77
2022/12/23 12:06:26;;;;;;;42.28;19.88;;;;;;;8.81;100.00;100308.19;6222958;22;20017;-77
2022/12/23 12:08:56;;;;;;;46.75;19.30;;;;;;;8.81;100.00;100306.28;6223524;22;20433;-78
2022/12/23 12:11:30;;;;;;;43.20;19.13;;;;;;;8.82;100.00;100301.72;6250339;22;20013;-77